Time;durP1;ratioP1;P1;durP2;ratioP2;P2;SDS_P1;SDS_P2;PMS_P1;PMS_P2;Temp;Humidity;BMP_temperature;BMP_pressure;BME280_temperature;BME280_humidity;BME280_pressure;Samples;Min_cycle;Max_cycle;Signal;HPM_P1;HPM_P2
2023/11/04 00:00:34;;;;;;;0.80;0.80;;;5.50;99.90;;;;;;4974312;28;20220;-57
2023/11/04 00:03:01;;;;;;;2.07;0.70;;;;;;;;;;4973070;28;20206;-57
2023/11/04 00:05:29;;;;;;;1.03;0.93;;;5.50;99.90;;;;;;4972579;28;20242;-57
2023/11/04 00:07:56;;;;;;;0.87;0.70;;;5.60;99.90;;;;;;4973974;28;20366;-57
2023/11/04 00:10:23;;;;;;;1.20;0.77;;;;;;;;;;4972061;28;20662;-57
2023/11/04 00:12:50;;;;;;;1.20;0.70;;;;;;;;;;4973384;28;20204;-57
2023/11/04 00:15:18;;;;;;;1.57;0.97;;;;;;;;;;4972827;28;20206;-57
2023/11/04 00:17:45;;;;;;;1.50;0.93;;;;;;;;;;4974518;28;20280;-57
2023/11/04 00:20:12;;;;;;;0.70;0.70;;;5.60;99.90;;;;;;4974901;28;20241;-57
2023/11/04 00:22:41;;;;;;;2.40;0.77;;;5.60;99.90;;;;;;4971594;28;20206;-57
2023/11/04 00:25:08;;;;;;;0.60;0.60;;;5.60;99.90;;;;;;4974248;28;20289;-57
2023/11/04 00:27:36;;;;;;;0.50;0.50;;;5.60;99.90;;;;;;4974700;28;20206;-57
2023/11/04 00:30:04;;;;;;;1.53;0.70;;;5.60;99.90;;;;;;4974825;28;20706;-57
2023/11/04 00:32:31;;;;;;;0.50;0.50;;;;;;;;;;4972490;28;20227;-57
2023/11/04 00:34:58;;;;;;;0.70;0.50;;;;;;;;;;4973249;28;20203;-58
2023/11/04 00:37:26;;;;;;;0.30;0.30;;;;;;;;;;4974551;28;20253;-58
2023/11/04 00:39:55;;;;;;;0.50;0.50;;;5.80;99.90;;;;;;4974525;28;21319;-57
2023/11/04 00:42:22;;;;;;;0.57;0.57;;;5.80;99.90;;;;;;4979094;28;20210;-57
2023/11/04 00:44:49;;;;;;;0.33;0.33;;;;;;;;;;4974064;28;20206;-56
2023/11/04 00:47:16;;;;;;;0.40;0.40;;;;;;;;;;4971183;28;20692;-57
2023/11/04 00:49:43;;;;;;;0.30;0.30;;;5.70;99.90;;;;;;4971889;28;20200;-57
2023/11/04 00:52:11;;;;;;;0.50;0.50;;;5.80;99.90;;;;;;4975631;28;20204;-57
2023/11/04 00:54:38;;;;;;;1.77;0.50;;;5.80;99.90;;;;;;4973858;28;20288;-58
2023/11/04 00:57:07;;;;;;;1.70;0.30;;;;;;;;;;4972906;28;20237;-57
2023/11/04 00:59:34;;;;;;;0.20;0.20;;;5.40;99.90;;;;;;4974129;28;20202;-58
2023/11/04 01:02:01;;;;;;;0.30;0.30;;;5.70;99.90;;;;;;4974267;28;20205;-57
2023/11/04 01:04:28;;;;;;;0.37;0.37;;;;;;;;;;4976621;28;20211;-57
2023/11/04 01:06:55;;;;;;;0.30;0.30;;;;;;;;;;4975523;28;20231;-57
2023/11/04 01:09:23;;;;;;;0.73;0.70;;;;;;;;;;4972465;28;20275;-57
2023/11/04 01:11:50;;;;;;;0.50;0.50;;;;;;;;;;4973785;28;20635;-57
2023/11/04 01:14:19;;;;;;;0.93;0.70;;;;;;;;;;4973606;28;20265;-57
2023/11/04 01:16:46;;;;;;;0.90;0.77;;;;;;;;;;4973077;28;20202;-57
2023/11/04 01:19:13;;;;;;;0.50;0.50;;;;;;;;;;4973030;28;20210;-57
2023/11/04 01:21:41;;;;;;;0.60;0.60;;;;;;;;;;4973629;28;20222;-58
2023/11/04 01:24:08;;;;;;;0.50;0.50;;;;;;;;;;4973420;28;20226;-57
2023/11/04 01:26:35;;;;;;;0.90;0.90;;;;;;;;;;4975645;28;20224;-57
2023/11/04 01:29:03;;;;;;;0.67;0.30;;;;;;;;;;4973202;28;20206;-57
2023/11/04 01:31:31;;;;;;;1.70;0.47;;;;;;;;;;4973626;28;20226;-57
2023/11/04 01:33:59;;;;;;;0.50;0.40;;;;;;;;;;4971576;28;20213;-57
2023/11/04 01:36:27;;;;;;;0.70;0.70;;;;;;;;;;4973296;28;20257;-57
2023/11/04 01:38:54;;;;;;;0.50;0.50;;;;;;;;;;4972522;28;20589;-57
2023/11/04 01:41:21;;;;;;;0.37;0.37;;;;;;;;;;4973055;28;20734;-57
2023/11/04 01:43:49;;;;;;;1.50;0.40;;;;;;;;;;4964848;28;20211;-57
2023/11/04 01:46:25;;;;;;;0.97;0.50;;;;;;;;;;4972919;28;20222;-57
2023/11/04 01:48:54;;;;;;;0.50;0.50;;;;;;;;;;4972067;28;20283;-57
2023/11/04 01:51:21;;;;;;;0.47;0.47;;;;;;;;;;4972673;28;20216;-58
2023/11/04 01:53:50;;;;;;;0.67;0.67;;;;;;;;;;4970664;28;20214;-58
2023/11/04 01:56:19;;;;;;;2.07;0.93;;;;;;;;;;4972478;28;20653;-57
2023/11/04 01:58:47;;;;;;;0.70;0.70;;;;;;;;;;4972766;28;20630;-57
2023/11/04 02:01:15;;;;;;;2.37;0.77;;;;;;;;;;4971890;28;20613;-57
2023/11/04 02:03:42;;;;;;;3.73;1.23;;;;;;;;;;4970956;28;20212;-58
2023/11/04 02:06:11;;;;;;;0.70;0.70;;;;;;;;;;4972590;28;20643;-58
2023/11/04 02:08:38;;;;;;;2.30;0.97;;;;;;;;;;4976362;28;20198;-57
2023/11/04 02:11:06;;;;;;;0.50;0.50;;;;;;;;;;4973989;28;20219;-57
2023/11/04 02:13:33;;;;;;;1.23;0.80;;;;;;;;;;4970099;28;20203;-57
2023/11/04 02:16:00;;;;;;;2.53;0.60;;;;;;;;;;4969784;28;20248;-57
2023/11/04 02:18:29;;;;;;;0.70;0.70;;;;;;;;;;4970518;28;20212;-57
2023/11/04 02:21:00;;;;;;;0.90;0.90;;;;;;;;;;4971775;28;20259;-56
2023/11/04 02:23:27;;;;;;;0.50;0.47;;;;;;;;;;4979637;28;20197;-57
2023/11/04 02:25:54;;;;;;;2.30;0.60;;;;;;;;;;4976813;28;20218;-57
2023/11/04 02:28:22;;;;;;;0.87;0.60;;;;;;;;;;4974691;28;20594;-57
2023/11/04 02:30:49;;;;;;;1.90;0.50;;;;;;;;;;4992275;28;20703;-57
2023/11/04 02:33:17;;;;;;;0.50;0.50;;;;;;;;;;4990931;28;20264;-57
2023/11/04 02:35:45;;;;;;;0.57;0.50;;;;;;;;;;4973776;28;20631;-57
2023/11/04 02:38:13;;;;;;;1.47;0.50;;;;;;;;;;4981637;28;20226;-57
2023/11/04 02:40:40;;;;;;;0.30;0.30;;;;;;;;;;4991661;28;20381;-57
2023/11/04 02:43:08;;;;;;;2.43;0.37;;;;;;;;;;4992479;28;20208;-57
2023/11/04 02:45:34;;;;;;;0.30;0.30;;;;;;;;;;4979458;28;20206;-57
2023/11/04 02:48:01;;;;;;;0.20;0.20;;;;;;;;;;4987985;28;20212;-57
2023/11/04 02:50:28;;;;;;;0.30;0.30;;;;;;;;;;4991818;28;20305;-58
2023/11/04 02:52:56;;;;;;;1.23;0.30;;;;;;;;;;4981535;28;20202;-57
2023/11/04 02:55:24;;;;;;;0.40;0.40;;;;;;;;;;4990247;28;20205;-57
2023/11/04 02:57:51;;;;;;;0.77;0.20;;;;;;;;;;4981090;28;20194;-57
2023/11/04 03:00:18;;;;;;;0.93;0.40;;;;;;;;;;4989977;28;20742;-57
2023/11/04 03:02:45;;;;;;;0.40;0.40;;;5.40;99.90;;;;;;4991890;28;20677;-57
2023/11/04 03:05:13;;;;;;;0.40;0.40;;;;;;;;;;4991426;28;20205;-57
2023/11/04 03:07:41;;;;;;;0.20;0.20;;;;;;;;;;4986938;28;20217;-57
2023/11/04 03:10:09;;;;;;;0.67;0.20;;;;;;;;;;4969737;28;20279;-57
2023/11/04 03:12:37;;;;;;;0.20;0.20;;;;;;;;;;4975328;28;20209;-57
2023/11/04 03:15:05;;;;;;;0.20;0.20;;;;;;;;;;4988477;28;20625;-57
2023/11/04 03:17:32;;;;;;;0.10;0.10;;;;;;;;;;4979121;28;20619;-57
2023/11/04 03:20:00;;;;;;;0.40;0.40;;;;;;;;;;4972266;28;20234;-57
2023/11/04 03:22:27;;;;;;;1.33;0.20;;;;;;;;;;4977843;28;20250;-57
2023/11/04 03:24:54;;;;;;;1.67;0.40;;;;;;;;;;4983638;28;20275;-57
2023/11/04 03:27:21;;;;;;;0.97;0.50;;;;;;;;;;4985669;28;20288;-57
2023/11/04 03:29:50;;;;;;;1.87;0.57;;;;;;;;;;4995330;28;20673;-57
2023/11/04 03:32:17;;;;;;;1.00;0.33;;;;;;;;;;4984129;28;20206;-57
2023/11/04 03:34:44;;;;;;;1.70;0.60;;;;;;;;;;4988671;28;20817;-57
2023/11/04 03:37:11;;;;;;;0.50;0.30;;;;;;;;;;4995313;28;20215;-57
2023/11/04 03:39:38;;;;;;;0.27;0.27;;;;;;;;;;4994954;28;20232;-57
2023/11/04 03:42:06;;;;;;;0.33;0.33;;;;;;;;;;4978703;28;20290;-57
2023/11/04 03:44:33;;;;;;;0.30;0.30;;;;;;;;;;4975183;28;20201;-57
2023/11/04 03:47:02;;;;;;;2.00;0.20;;;;;;;;;;4974540;28;20227;-57
2023/11/04 03:49:29;;;;;;;0.60;0.40;;;;;;;;;;4975931;28;20214;-57
2023/11/04 03:51:56;;;;;;;0.30;0.30;;;;;;;;;;4974764;28;20723;-57
2023/11/04 03:54:24;;;;;;;0.43;0.40;;;;;;;;;;4975675;28;20232;-57
2023/11/04 03:56:51;;;;;;;0.37;0.30;;;;;;;;;;4975119;28;20253;-57
2023/11/04 03:59:18;;;;;;;0.30;0.30;;;;;;;;;;4993444;28;20592;-57
2023/11/04 04:01:45;;;;;;;0.10;0.10;;;;;;;;;;4985710;28;20280;-57
2023/11/04 04:04:14;;;;;;;0.43;0.43;;;4.90;99.90;;;;;;4986722;28;20726;-57
2023/11/04 04:06:41;;;;;;;0.20;0.20;;;;;;;;;;4985078;28;20258;-57
2023/11/04 04:09:08;;;;;;;0.30;0.30;;;5.10;99.90;;;;;;4978436;28;20252;-57
2023/11/04 04:11:35;;;;;;;1.07;0.20;;;;;;;;;;4987043;28;20221;-57
2023/11/04 04:14:02;;;;;;;0.40;0.27;;;4.90;99.90;;;;;;4994886;28;20201;-57
2023/11/04 04:16:28;;;;;;;3.00;0.40;;;;;;;;;;4995205;28;20200;-57
2023/11/04 04:18:55;;;;;;;0.77;0.20;;;;;;;;;;4985896;28;20201;-57
2023/11/04 04:21:27;;;;;;;0.30;0.30;;;;;;;;;;4987029;28;20234;-57
2023/11/04 04:23:54;;;;;;;0.27;0.27;;;;;;;;;;4994708;28;20265;-57
2023/11/04 04:26:22;;;;;;;0.57;0.30;;;4.70;99.90;;;;;;4990372;28;20222;-57
2023/11/04 04:28:49;;;;;;;0.30;0.30;;;4.70;99.90;;;;;;4966654;28;20203;-57
2023/11/04 04:31:17;;;;;;;0.67;0.60;;;;;;;;;;4973554;28;20680;-58
2023/11/04 04:33:44;;;;;;;0.30;0.20;;;;;;;;;;4975258;28;20202;-57
2023/11/04 04:36:12;;;;;;;1.60;0.53;;;;;;;;;;4975208;28;20208;-57
2023/11/04 04:38:40;;;;;;;0.30;0.30;;;;;;;;;;4974159;28;20269;-57
2023/11/04 04:41:08;;;;;;;0.43;0.43;;;;;;;;;;4969298;28;20788;-57
2023/11/04 04:43:36;;;;;;;1.50;0.40;;;;;;;;;;4974819;28;20206;-58
2023/11/04 04:46:04;;;;;;;0.40;0.40;;;;;;;;;;4974801;28;20206;-57
2023/11/04 04:48:32;;;;;;;0.43;0.43;;;;;;;;;;4974818;28;20205;-58
2023/11/04 04:50:59;;;;;;;1.27;0.40;;;3.70;99.90;;;;;;4974658;28;20221;-57
2023/11/04 04:53:26;;;;;;;0.43;0.40;;;;;;;;;;4974635;28;20585;-57
2023/11/04 04:55:55;;;;;;;0.97;0.57;;;4.00;99.90;;;;;;4974316;28;20234;-57
2023/11/04 04:58:22;;;;;;;1.57;1.57;;;;;;;;;;4974400;28;20202;-57
2023/11/04 05:00:50;;;;;;;1.30;1.20;;;;;;;;;;4975394;28;20814;-57
2023/11/04 05:03:18;;;;;;;0.97;0.97;;;;;;;;;;4974407;28;20203;-57
2023/11/04 05:05:45;;;;;;;0.50;0.50;;;;;;;;;;4973132;28;20201;-58
2023/11/04 05:08:12;;;;;;;0.53;0.53;;;;;;;;;;4973260;28;20706;-58
2023/11/04 05:10:40;;;;;;;0.50;0.50;;;;;;;;;;4974536;28;20233;-57
2023/11/04 05:13:09;;;;;;;0.50;0.50;;;;;;;;;;4974522;28;20658;-58
2023/11/04 05:15:36;;;;;;;0.20;0.20;;;;;;;;;;4966856;28;20203;-58
2023/11/04 05:18:04;;;;;;;1.03;0.30;;;;;;;;;;4974430;28;20551;-57
2023/11/04 05:20:31;;;;;;;1.03;0.40;;;;;;;;;;4973356;28;20222;-57
2023/11/04 05:22:58;;;;;;;0.93;0.57;;;;;;;;;;4969652;28;20294;-57
2023/11/04 05:25:27;;;;;;;0.40;0.40;;;;;;;;;;4973679;28;20293;-57
2023/11/04 05:27:54;;;;;;;0.30;0.30;;;;;;;;;;4974365;28;20229;-58
2023/11/04 05:30:23;;;;;;;0.20;0.20;;;;;;;;;;4974165;28;20231;-57
2023/11/04 05:32:50;;;;;;;0.30;0.30;;;;;;;;;;4974177;28;20210;-57
2023/11/04 05:35:18;;;;;;;1.40;0.60;;;;;;;;;;4973721;28;20563;-58
2023/11/04 05:37:45;;;;;;;0.57;0.57;;;;;;;;;;4972755;28;20290;-58
2023/11/04 05:40:12;;;;;;;0.73;0.50;;;;;;;;;;4973747;28;20231;-57
2023/11/04 05:42:40;;;;;;;0.40;0.40;;;;;;;;;;4974218;28;20200;-57
2023/11/04 05:45:07;;;;;;;0.40;0.40;;;;;;;;;;4973668;28;20202;-58
2023/11/04 05:47:36;;;;;;;0.20;0.20;;;;;;;;;;4973866;28;20245;-57
2023/11/04 05:50:04;;;;;;;1.73;0.60;;;;;;;;;;4972590;28;20273;-57
2023/11/04 05:52:31;;;;;;;0.77;0.77;;;;;;;;;;4972537;28;20203;-58
2023/11/04 05:54:58;;;;;;;2.67;1.53;;;;;;;;;;4973388;28;20256;-57
2023/11/04 05:57:25;;;;;;;2.17;1.23;;;;;;;;;;4972689;28;20204;-58
2023/11/04 05:59:53;;;;;;;1.17;0.77;;;;;;;;;;4973653;28;20237;-58
2023/11/04 06:02:20;;;;;;;0.93;0.90;;;;;;;;;;4973383;28;20256;-57
2023/11/04 06:04:48;;;;;;;3.40;0.73;;;;;;;;;;4972424;28;20201;-57
2023/11/04 06:07:16;;;;;;;0.67;0.53;;;;;;;;;;4972762;28;20230;-57
2023/11/04 06:09:43;;;;;;;0.60;0.60;;;;;;;;;;4973423;28;20712;-57
2023/11/04 06:12:10;;;;;;;0.53;0.53;;;3.40;99.90;;;;;;4973484;28;20200;-57
2023/11/04 06:14:37;;;;;;;0.40;0.40;;;3.70;99.90;;;;;;4973128;28;20206;-57
2023/11/04 06:17:04;;;;;;;0.77;0.70;;;3.50;99.90;;;;;;4973439;28;20195;-57
2023/11/04 06:19:31;;;;;;;0.60;0.60;;;;;;;;;;4979603;28;20729;-57
2023/11/04 06:22:00;;;;;;;2.63;0.60;;;;;;;;;;4970259;28;20258;-57
2023/11/04 06:24:27;;;;;;;6.33;0.40;;;;;;;;;;4972167;28;20206;-57
2023/11/04 06:26:56;;;;;;;0.20;0.20;;;3.80;99.90;;;;;;4973273;28;20274;-57
2023/11/04 06:29:23;;;;;;;1.60;0.30;;;3.90;99.90;;;;;;4972969;28;20293;-58
2023/11/04 06:31:50;;;;;;;0.20;0.20;;;3.90;99.90;;;;;;4973085;28;20420;-57
2023/11/04 06:34:17;;;;;;;2.10;0.40;;;3.80;99.90;;;;;;4972519;28;20200;-57
2023/11/04 06:36:44;;;;;;;0.20;0.20;;;3.90;99.90;;;;;;4971725;28;20204;-57
2023/11/04 06:39:13;;;;;;;0.20;0.20;;;3.90;99.90;;;;;;4973346;28;20207;-57
2023/11/04 06:41:40;;;;;;;0.20;0.20;;;3.90;99.90;;;;;;4980103;28;20230;-57
2023/11/04 06:44:07;;;;;;;1.23;0.30;;;4.00;99.90;;;;;;4972739;28;20214;-57
2023/11/04 06:46:34;;;;;;;0.20;0.20;;;3.90;99.90;;;;;;4965945;28;20213;-57
2023/11/04 06:49:01;;;;;;;0.50;0.40;;;4.00;99.90;;;;;;4973034;28;20289;-57
2023/11/04 06:51:28;;;;;;;0.43;0.43;;;4.00;99.90;;;;;;4972549;28;20781;-57
2023/11/04 06:53:57;;;;;;;0.40;0.40;;;4.00;99.90;;;;;;4971435;28;20206;-57
2023/11/04 06:56:27;;;;;;;0.30;0.30;;;4.10;99.90;;;;;;4972988;28;20293;-57
2023/11/04 06:58:54;;;;;;;0.33;0.10;;;;;;;;;;4972828;28;20197;-57
2023/11/04 07:01:21;;;;;;;0.20;0.20;;;;;;;;;;4972002;28;20281;-57
2023/11/04 07:03:48;;;;;;;0.40;0.20;;;;;;;;;;4972600;28;20211;-57
2023/11/04 07:06:16;;;;;;;0.20;0.10;;;;;;;;;;4972888;28;20198;-57
2023/11/04 07:08:43;;;;;;;0.20;0.20;;;;;;;;;;4971834;28;20290;-57
2023/11/04 07:11:12;;;;;;;0.20;0.10;;;;;;;;;;4972495;28;20273;-57
2023/11/04 07:13:40;;;;;;;0.20;0.20;;;;;;;;;;4972633;28;20289;-57
2023/11/04 07:16:08;;;;;;;0.60;0.50;;;;;;;;;;4972474;28;20231;-57
2023/11/04 07:18:35;;;;;;;0.60;0.60;;;;;;;;;;4972784;28;20277;-57
2023/11/04 07:21:04;;;;;;;1.07;0.73;;;;;;;;;;4972663;28;20231;-57
2023/11/04 07:23:31;;;;;;;0.87;0.87;;;;;;;;;;4969026;28;20220;-57
2023/11/04 07:25:58;;;;;;;0.40;0.40;;;;;;;;;;4971469;28;20207;-57
2023/11/04 07:28:34;;;;;;;0.40;0.40;;;;;;;;;;4972184;28;20277;-57
2023/11/04 07:31:02;;;;;;;0.87;0.87;;;;;;;;;;4980478;28;20893;-57
2023/11/04 07:33:29;;;;;;;0.30;0.30;;;;;;;;;;4972521;28;20256;-57
2023/11/04 07:35:57;;;;;;;1.13;0.20;;;;;;;;;;4972509;28;20226;-57
2023/11/04 07:38:24;;;;;;;0.50;0.40;;;;;;;;;;4970303;28;20493;-57
2023/11/04 07:40:52;;;;;;;0.43;0.10;;;;;;;;;;4971813;28;20286;-57
2023/11/04 07:43:19;;;;;;;0.10;0.10;;;;;;;;;;4971572;28;20269;-57
2023/11/04 07:45:46;;;;;;;0.23;0.23;;;;;;;;;;4973051;28;20211;-57
2023/11/04 07:48:16;;;;;;;0.63;0.60;;;;;;;;;;4971953;28;20242;-57
2023/11/04 07:50:43;;;;;;;0.40;0.30;;;;;;;;;;4972103;28;20230;-57
2023/11/04 07:53:10;;;;;;;1.40;0.43;;;;;;;;;;4971675;28;20198;-57
2023/11/04 07:55:38;;;;;;;3.53;0.57;;;;;;;;;;4971954;28;20198;-58
2023/11/04 07:58:05;;;;;;;0.30;0.30;;;;;;;;;;4971191;28;20747;-58
2023/11/04 08:00:32;;;;;;;0.40;0.27;;;;;;;;;;4972144;28;20226;-57
2023/11/04 08:02:59;;;;;;;0.57;0.30;;;;;;;;;;4971257;28;20269;-57
2023/11/04 08:05:28;;;;;;;0.70;0.70;;;;;;;;;;4971362;28;20259;-57
2023/11/04 08:07:56;;;;;;;0.20;0.20;;;;;;;;;;4972057;28;20310;-57
2023/11/04 08:10:23;;;;;;;0.63;0.23;;;;;;;;;;4971806;28;20278;-58
2023/11/04 08:12:50;;;;;;;1.70;0.20;;;;;;;;;;4972175;28;20633;-56
2023/11/04 08:15:17;;;;;;;0.20;0.20;;;;;;;;;;4974859;28;20210;-57
2023/11/04 08:17:45;;;;;;;1.17;0.40;;;;;;;;;;4975427;28;20203;-58
2023/11/04 08:20:12;;;;;;;2.10;0.30;;;;;;;;;;4975077;28;20227;-58
2023/11/04 08:22:41;;;;;;;2.30;0.23;;;;;;;;;;4975219;28;20198;-58
2023/11/04 08:25:09;;;;;;;0.30;0.30;;;;;;;;;;4975030;28;20202;-58
2023/11/04 08:27:36;;;;;;;0.33;0.20;;;;;;;;;;4975170;28;20235;-58
2023/11/04 08:30:04;;;;;;;0.30;0.20;;;;;;;;;;4975076;28;20218;-58
2023/11/04 08:32:32;;;;;;;0.30;0.27;;;;;;;;;;4974982;28;20237;-58
2023/11/04 08:34:59;;;;;;;0.40;0.40;;;;;;;;;;4974641;28;20202;-57
2023/11/04 08:37:27;;;;;;;0.33;0.33;;;;;;;;;;4975104;28;20237;-56
2023/11/04 08:39:55;;;;;;;0.40;0.40;;;;;;;;;;4974785;28;20765;-56
2023/11/04 08:42:23;;;;;;;0.30;0.30;;;;;;;;;;4974802;28;20210;-56
2023/11/04 08:44:50;;;;;;;1.37;0.40;;;7.60;99.90;;;;;;4974538;28;20199;-57
2023/11/04 08:47:17;;;;;;;0.47;0.30;;;;;;;;;;4974730;28;20202;-56
2023/11/04 08:49:44;;;;;;;0.30;0.30;;;;;;;;;;4973493;28;20207;-57
2023/11/04 08:52:12;;;;;;;0.50;0.30;;;;;;;;;;4973959;28;20305;-56
2023/11/04 08:54:40;;;;;;;0.80;0.80;;;;;;;;;;4966255;28;20258;-56
2023/11/04 08:57:08;;;;;;;0.20;0.20;;;9.30;99.90;;;;;;4974939;28;20306;-56
2023/11/04 08:59:35;;;;;;;0.20;0.10;;;9.90;99.90;;;;;;4974535;28;20261;-56
2023/11/04 09:02:02;;;;;;;1.10;0.20;;;9.90;99.90;;;;;;4974585;28;20502;-56
2023/11/04 09:04:29;;;;;;;1.07;0.40;;;10.00;99.90;;;;;;4974103;28;20214;-56
2023/11/04 09:06:56;;;;;;;0.30;0.30;;;9.90;99.90;;;;;;4974722;28;20204;-56
2023/11/04 09:09:23;;;;;;;0.30;0.30;;;10.40;99.90;;;;;;4974420;28;20317;-56
2023/11/04 09:11:51;;;;;;;0.20;0.20;;;10.50;99.90;;;;;;4972765;28;20277;-56
2023/11/04 09:14:20;;;;;;;0.30;0.30;;;10.80;99.90;;;;;;4971404;28;20210;-56
2023/11/04 09:16:49;;;;;;;0.63;0.30;;;;;;;;;;4975140;28;20202;-58
2023/11/04 09:19:16;;;;;;;0.30;0.30;;;;;;;;;;4974207;28;20198;-56
2023/11/04 09:21:44;;;;;;;0.30;0.30;;;;;;;;;;4973853;28;20399;-56
2023/11/04 09:24:11;;;;;;;0.47;0.20;;;;;;;;;;4972086;28;20198;-58
2023/11/04 09:26:38;;;;;;;0.30;0.30;;;;;;;;;;4975839;28;20199;-57
2023/11/04 09:29:05;;;;;;;0.40;0.30;;;12.40;99.90;;;;;;4977521;28;20277;-57
2023/11/04 09:31:35;;;;;;;0.73;0.70;;;12.40;99.90;;;;;;4972399;28;20762;-57
2023/11/04 09:34:02;;;;;;;0.50;0.50;;;;;;;;;;4978311;28;20706;-58
2023/11/04 09:36:30;;;;;;;2.20;0.67;;;;;;;;;;4981412;28;20354;-57
2023/11/04 09:38:57;;;;;;;0.80;0.80;;;;;;;;;;4987949;28;20551;-57
2023/11/04 09:41:25;;;;;;;0.83;0.83;;;;;;;;;;4993084;28;20270;-57
2023/11/04 09:43:53;;;;;;;0.60;0.60;;;;;;;;;;4985094;28;20250;-57
2023/11/04 09:46:40;;;;;;;0.70;0.60;;;;;;;;;;4977745;28;20266;-57
2023/11/04 09:49:07;;;;;;;0.67;0.67;;;;;;;;;;4993271;28;20650;-57
2023/11/04 09:51:36;;;;;;;0.60;0.60;;;;;;;;;;4980734;28;20278;-57
2023/11/04 09:54:04;;;;;;;0.20;0.20;;;;;;;;;;4983712;28;20250;-57
2023/11/04 09:56:31;;;;;;;0.47;0.47;;;;;;;;;;4984971;28;20698;-57
2023/11/04 09:58:59;;;;;;;0.20;0.20;;;;;;;;;;4993319;28;20326;-55
2023/11/04 10:01:29;;;;;;;0.37;0.37;;;;;;;;;;4992949;28;20252;-57
2023/11/04 10:03:57;;;;;;;0.30;0.30;;;;;;;;;;4985505;28;20228;-56
2023/11/04 10:06:25;;;;;;;0.50;0.50;;;;;;;;;;4984948;28;20207;-56
2023/11/04 10:08:53;;;;;;;1.03;0.47;;;;;;;;;;4992247;28;20623;-56
2023/11/04 10:11:20;;;;;;;0.40;0.40;;;;;;;;;;4992758;28;20718;-56
2023/11/04 10:13:47;;;;;;;0.80;0.70;;;;;;;;;;4986244;28;20195;-56
2023/11/04 10:16:15;;;;;;;0.87;0.70;;;;;;;;;;4972781;28;20228;-56
2023/11/04 10:18:43;;;;;;;1.63;0.97;;;;;;;;;;4973241;28;20211;-57
2023/11/04 10:21:11;;;;;;;0.43;0.43;;;;;;;;;;4972986;28;20227;-56
2023/11/04 10:23:39;;;;;;;0.30;0.30;;;;;;;;;;4965150;28;20338;-56
2023/11/04 10:26:06;;;;;;;0.73;0.73;;;;;;;;;;4972545;28;20678;-56
2023/11/04 10:28:35;;;;;;;0.77;0.77;;;10.40;99.90;;;;;;4972174;28;20224;-56
2023/11/04 10:31:04;;;;;;;0.87;0.50;;;10.40;99.90;;;;;;4972903;28;20224;-56
2023/11/04 10:33:36;;;;;;;4.80;2.10;;;;;;;;;;4972948;28;20249;-56
2023/11/04 10:36:05;;;;;;;1.33;0.80;;;10.10;99.90;;;;;;4970123;28;20274;-56
2023/11/04 10:38:35;;;;;;;2.63;0.30;;;10.10;99.90;;;;;;4969335;28;20203;-58
2023/11/04 10:41:04;;;;;;;1.13;0.40;;;10.10;99.90;;;;;;4970793;28;20236;-57
2023/11/04 10:43:37;;;;;;;0.40;0.40;;;;;;;;;;4974405;28;20207;-57
2023/11/04 10:46:07;;;;;;;2.67;0.30;;;;;;;;;;4983800;28;20259;-58
2023/11/04 10:48:40;;;;;;;2.70;0.70;;;;;;;;;;4985972;28;20533;-56
2023/11/04 10:51:12;;;;;;;0.43;0.30;;;;;;;;;;4979501;28;20280;-56
2023/11/04 10:53:44;;;;;;;1.93;0.80;;;;;;;;;;4981200;28;20206;-56
2023/11/04 10:56:19;;;;;;;0.50;0.50;;;10.40;99.90;;;;;;4980728;28;20949;-56
2023/11/04 10:58:50;;;;;;;0.93;0.70;;;;;;;;;;4970397;28;20255;-56
2023/11/04 11:01:18;;;;;;;0.50;0.50;;;;;;;;;;4969028;28;20221;-56
2023/11/04 11:03:47;;;;;;;5.00;2.47;;;10.50;99.90;;;;;;4966310;28;20284;-56
2023/11/04 11:06:14;;;;;;;0.33;0.33;;;;;;;;;;4971592;28;20299;-56
2023/11/04 11:08:46;;;;;;;0.20;0.20;;;;;;;;;;4969781;28;20223;-56
2023/11/04 11:11:17;;;;;;;0.30;0.30;;;;;;;;;;4976723;28;20257;-56
2023/11/04 11:13:47;;;;;;;0.03;0.03;;;;;;;;;;4964530;28;20209;-56
2023/11/04 11:16:14;;;;;;;0.40;0.40;;;;;;;;;;4970199;28;20282;-56
2023/11/04 11:18:42;;;;;;;1.33;0.27;;;;;;;;;;4974244;28;20233;-56
2023/11/04 11:21:09;;;;;;;0.10;0.03;;;;;;;;;;4968686;28;20231;-56
2023/11/04 11:23:37;;;;;;;0.37;0.30;;;;;;;;;;4977527;28;20215;-56
2023/11/04 11:26:06;;;;;;;0.70;0.33;;;;;;;;;;4969450;28;20208;-56
2023/11/04 11:28:40;;;;;;;1.60;0.10;;;;;;;;;;4971245;28;20234;-56
2023/11/04 11:31:11;;;;;;;0.73;0.10;;;;;;;;;;4971617;28;20230;-56
2023/11/04 11:33:39;;;;;;;0.20;0.20;;;;;;;;;;4969871;28;20211;-56
2023/11/04 11:36:09;;;;;;;0.17;0.17;;;;;;;;;;4972227;28;20203;-56
2023/11/04 11:38:37;;;;;;;0.20;0.20;;;;;;;;;;4969762;28;20259;-56
2023/11/04 11:41:06;;;;;;;0.57;0.10;;;;;;;;;;4971579;28;20226;-56
2023/11/04 11:43:34;;;;;;;0.10;0.10;;;;;;;;;;4970816;28;20262;-56
2023/11/04 11:46:04;;;;;;;0.20;0.20;;;;;;;;;;4968401;28;20256;-56
2023/11/04 11:48:32;;;;;;;0.63;0.50;;;;;;;;;;4972553;28;20211;-56
2023/11/04 11:50:59;;;;;;;1.77;0.33;;;;;;;;;;4974911;28;20285;-56
2023/11/04 11:53:27;;;;;;;0.10;0.10;;;;;;;;;;4974146;28;20274;-56
2023/11/04 11:55:58;;;;;;;0.53;0.10;;;;;;;;;;4973876;28;20200;-56
2023/11/04 11:58:27;;;;;;;0.10;0.00;;;;;;;;;;4973106;28;20778;-56
2023/11/04 12:00:55;;;;;;;0.27;0.27;;;;;;;;;;4972154;28;20227;-56
2023/11/04 12:03:23;;;;;;;0.40;0.30;;;;;;;;;;4975525;28;20298;-56
2023/11/04 12:05:50;;;;;;;0.23;0.23;;;;;;;;;;4975383;28;20232;-56
2023/11/04 12:08:17;;;;;;;1.30;0.10;;;;;;;;;;4974617;28;20258;-56
2023/11/04 12:10:45;;;;;;;0.20;0.20;;;;;;;;;;4967777;28;20235;-56
2023/11/04 12:13:13;;;;;;;0.40;0.40;;;;;;;;;;4974635;28;20207;-56
2023/11/04 12:15:42;;;;;;;0.43;0.20;;;;;;;;;;4975180;28;20687;-56
2023/11/04 12:18:10;;;;;;;1.20;0.20;;;;;;;;;;4976852;28;20289;-56
2023/11/04 12:20:38;;;;;;;0.10;0.10;;;;;;;;;;4974185;28;20254;-56
2023/11/04 12:23:06;;;;;;;0.10;0.10;;;;;;;;;;4975289;28;20312;-57
2023/11/04 12:25:35;;;;;;;0.80;0.40;;;;;;;;;;4974393;28;20500;-56
2023/11/04 12:28:04;;;;;;;0.10;0.10;;;;;;;;;;4973354;28;20235;-56
2023/11/04 12:30:31;;;;;;;0.40;0.30;;;;;;;;;;4968127;28;20231;-57
2023/11/04 12:33:00;;;;;;;0.13;0.13;;;;;;;;;;4975249;28;20205;-57
2023/11/04 12:35:29;;;;;;;0.10;0.10;;;;;;;;;;4974430;28;20211;-56
2023/11/04 12:37:58;;;;;;;0.10;0.10;;;;;;;;;;4975003;28;20251;-56
2023/11/04 12:40:28;;;;;;;0.20;0.20;;;;;;;;;;4974577;28;20232;-58
2023/11/04 12:42:56;;;;;;;0.10;0.10;;;;;;;;;;4973450;28;20203;-57
2023/11/04 12:45:23;;;;;;;0.20;0.20;;;;;;;;;;4982461;28;20215;-56
2023/11/04 12:47:51;;;;;;;0.20;0.20;;;;;;;;;;4974133;28;20205;-57
2023/11/04 12:50:20;;;;;;;0.20;0.20;;;;;;;;;;4973034;28;20231;-57
2023/11/04 12:52:47;;;;;;;0.60;0.37;;;;;;;;;;4973616;28;20236;-56
2023/11/04 12:55:17;;;;;;;0.30;0.30;;;;;;;;;;4976328;28;20678;-57
2023/11/04 12:57:44;;;;;;;1.10;0.20;;;;;;;;;;4965759;28;20283;-57
2023/11/04 13:00:12;;;;;;;0.10;0.10;;;;;;;;;;4969213;28;20221;-57
2023/11/04 13:02:39;;;;;;;0.83;0.13;;;;;;;;;;4968501;28;20266;-57
2023/11/04 13:05:07;;;;;;;0.47;0.10;;;;;;;;;;4974799;28;20207;-57
2023/11/04 13:07:36;;;;;;;0.10;0.10;;;;;;;;;;4977730;28;20212;-57
2023/11/04 13:10:05;;;;;;;1.30;0.20;;;;;;;;;;4986702;28;20222;-57
2023/11/04 13:12:32;;;;;;;1.27;0.10;;;;;;;;;;4980563;28;20204;-57
2023/11/04 13:14:59;;;;;;;0.50;0.50;;;;;;;;;;4977179;28;20199;-57
2023/11/04 13:17:27;;;;;;;0.10;0.10;;;;;;;;;;4976332;28;20211;-57
2023/11/04 13:19:54;;;;;;;1.50;0.10;;;;;;;;;;4975118;28;20231;-57
2023/11/04 13:22:22;;;;;;;0.10;0.10;;;;;;;;;;4968020;28;20229;-56
2023/11/04 13:24:50;;;;;;;0.57;0.17;;;;;;;;;;4974723;28;20230;-57
2023/11/04 13:27:18;;;;;;;0.10;0.10;;;;;;;;;;4974964;28;20684;-57
2023/11/04 13:29:47;;;;;;;0.40;0.10;;;;;;;;;;4980467;28;20250;-57
2023/11/04 13:32:14;;;;;;;0.50;0.10;;;;;;;;;;4973362;28;20261;-56
2023/11/04 13:34:41;;;;;;;1.30;0.00;;;;;;;;;;4973429;28;20234;-56
2023/11/04 13:37:08;;;;;;;0.20;0.00;;;;;;;;;;4973239;28;20203;-57
2023/11/04 13:39:35;;;;;;;5.00;0.20;;;;;;;;;;4973566;28;20207;-56
2023/11/04 13:42:04;;;;;;;0.00;0.00;;;;;;;;;;4982198;28;20203;-56
2023/11/04 13:44:31;;;;;;;0.10;0.10;;;;;;;;;;4973602;28;20203;-57
2023/11/04 13:46:59;;;;;;;0.10;0.10;;;;;;;;;;4974107;28;20199;-56
2023/11/04 13:49:26;;;;;;;2.33;0.10;;;;;;;;;;4972617;28;20779;-56
2023/11/04 13:51:54;;;;;;;0.30;0.10;;;;;;;;;;4973711;28;20261;-57
2023/11/04 13:54:21;;;;;;;0.10;0.10;;;;;;;;;;4979170;28;20207;-56
2023/11/04 13:56:48;;;;;;;0.20;0.20;;;;;;;;;;4973703;28;20262;-56
2023/11/04 13:59:17;;;;;;;11.23;2.30;;;;;;;;;;4973017;28;20203;-57
2023/11/04 14:01:46;;;;;;;0.00;0.00;;;;;;;;;;4973546;28;20713;-56
2023/11/04 14:04:13;;;;;;;1.60;0.10;;;;;;;;;;4973247;28;20199;-57
2023/11/04 14:06:40;;;;;;;0.40;0.40;;;;;;;;;;4973692;28;20208;-57
2023/11/04 14:09:07;;;;;;;2.30;0.17;;;;;;;;;;4972469;28;20271;-57
2023/11/04 14:11:35;;;;;;;0.17;0.00;;;;;;;;;;4972927;28;20234;-56
2023/11/04 14:14:02;;;;;;;0.00;0.00;;;;;;;;;;4971929;28;20584;-57
2023/11/04 14:16:30;;;;;;;0.00;0.00;;;;;;;;;;4972236;28;20207;-56
2023/11/04 14:18:58;;;;;;;0.10;0.00;;;;;;;;;;4973006;28;20203;-57
2023/11/04 14:21:26;;;;;;;0.77;0.20;;;;;;;;;;4981333;28;20371;-56
2023/11/04 14:23:54;;;;;;;0.70;0.10;;;;;;;;;;4973109;28;20209;-57
2023/11/04 14:26:24;;;;;;;0.00;0.00;;;;;;;;;;4972582;28;20241;-57